createdAt,value
2022-12-08T00:01:56.749Z,5.76
2022-12-08T00:05:21.856Z,5.71
2022-12-08T00:08:47.128Z,5.66
2022-12-08T00:12:12.454Z,5.66
2022-12-08T00:15:37.703Z,5.65
2022-12-08T00:19:03.050Z,5.58
2022-12-08T00:22:28.310Z,5.57
2022-12-08T00:25:53.600Z,5.55
2022-12-08T00:29:18.875Z,5.52
2022-12-08T00:32:44.128Z,5.5
2022-12-08T00:36:09.392Z,5.49
2022-12-08T00:39:34.723Z,5.47
2022-12-08T00:42:59.960Z,5.4
2022-12-08T00:46:25.296Z,5.35
2022-12-08T00:49:50.523Z,5.36
2022-12-08T00:53:15.800Z,5.38
2022-12-08T00:56:41.055Z,5.42
2022-12-08T01:00:06.653Z,5.51
2022-12-08T01:03:31.698Z,5.51
2022-12-08T01:06:56.847Z,5.52
2022-12-08T01:10:22.137Z,5.55
2022-12-08T01:13:47.407Z,5.57
2022-12-08T01:17:12.755Z,5.57
2022-12-08T01:20:37.991Z,5.58
2022-12-08T01:24:03.222Z,5.55
2022-12-08T01:27:28.510Z,5.53
2022-12-08T01:30:53.803Z,5.48
2022-12-08T01:34:19.019Z,5.49
2022-12-08T01:37:44.296Z,5.5
2022-12-08T01:41:09.542Z,5.49
2022-12-08T01:44:34.806Z,5.46
2022-12-08T01:48:00.130Z,5.44
2022-12-08T01:51:25.316Z,5.45
2022-12-08T01:54:50.637Z,5.43
2022-12-08T01:58:15.869Z,5.36
2022-12-08T02:01:41.175Z,5.29
2022-12-08T02:05:06.395Z,5.21
2022-12-08T02:08:31.666Z,5.22
2022-12-08T02:11:56.966Z,5.21
2022-12-08T02:15:22.220Z,5.19
2022-12-08T02:18:53.690Z,5.18
2022-12-08T02:22:12.793Z,5.16
2022-12-08T02:25:38.069Z,5.14
2022-12-08T02:29:03.380Z,5.15
2022-12-08T02:32:28.626Z,5.13
2022-12-08T02:35:53.904Z,5.14
2022-12-08T02:39:19.224Z,5.16
2022-12-08T02:42:44.504Z,5.18
2022-12-08T02:46:09.854Z,5.2
2022-12-08T02:49:35.011Z,5.17
2022-12-08T02:53:00.305Z,5.21
2022-12-08T02:56:25.615Z,5.22
2022-12-08T02:59:50.871Z,5.24
2022-12-08T03:03:16.187Z,5.24
2022-12-08T03:06:41.404Z,5.28
2022-12-08T03:10:07.025Z,5.31
2022-12-08T03:13:32.031Z,5.29
2022-12-08T03:16:57.262Z,5.28
2022-12-08T03:20:22.584Z,5.23
2022-12-08T03:23:47.822Z,5.2
2022-12-08T03:27:13.104Z,5.17
2022-12-08T03:30:38.466Z,5.11
2022-12-08T03:34:03.619Z,5.06
2022-12-08T03:37:28.874Z,5.03
2022-12-08T03:40:54.114Z,5.05
2022-12-08T03:44:19.381Z,5.02
2022-12-08T03:47:44.638Z,5.03
2022-12-08T03:51:09.916Z,5.03
2022-12-08T03:54:35.186Z,5.02
2022-12-08T03:58:00.436Z,5.01
2022-12-08T04:01:25.765Z,5.03
2022-12-08T04:04:50.977Z,5.04
2022-12-08T04:08:16.447Z,5.08
2022-12-08T04:11:41.555Z,5.12
2022-12-08T04:15:06.795Z,5.12
2022-12-08T04:18:32.081Z,5.14
2022-12-08T04:21:57.356Z,5.14
2022-12-08T04:25:22.620Z,5.11
2022-12-08T04:28:48.012Z,5.1
2022-12-08T04:32:13.230Z,5.08
2022-12-08T04:35:38.511Z,5.05
2022-12-08T04:39:03.746Z,5.04
2022-12-08T04:42:29.573Z,4.98
2022-12-08T04:45:54.849Z,4.96
2022-12-08T04:49:20.065Z,4.92
2022-12-08T04:52:45.303Z,4.88
2022-12-08T04:56:10.551Z,4.82
2022-12-08T04:59:35.800Z,4.82
2022-12-08T05:03:01.148Z,4.85
2022-12-08T05:06:26.310Z,4.9
2022-12-08T05:09:51.563Z,4.9
2022-12-08T05:13:16.819Z,4.89
2022-12-08T05:16:42.130Z,4.86
2022-12-08T05:20:07.400Z,4.85
2022-12-08T05:23:32.541Z,4.87
2022-12-08T05:26:57.758Z,4.94
2022-12-08T05:30:22.999Z,5.01
2022-12-08T05:33:48.256Z,5.04
2022-12-08T05:37:13.497Z,5.03
2022-12-08T05:40:38.753Z,5.04
2022-12-08T05:44:04.018Z,5.1
2022-12-08T05:47:33.108Z,5.1
2022-12-08T05:50:54.505Z,5.08
2022-12-08T05:54:19.798Z,5.02
2022-12-08T05:57:45.014Z,4.98
2022-12-08T06:01:10.290Z,5.02
2022-12-08T06:04:35.567Z,5.05
2022-12-08T06:08:00.907Z,5
2022-12-08T06:11:26.125Z,4.98
2022-12-08T06:14:51.407Z,4.98
2022-12-08T06:18:16.807Z,4.96
2022-12-08T06:21:42.238Z,4.88
2022-12-08T06:25:10.048Z,4.84
2022-12-08T06:28:33.130Z,4.94
2022-12-08T06:31:58.714Z,4.99
2022-12-08T06:35:23.905Z,5.05
2022-12-08T06:38:49.252Z,5.13
2022-12-08T06:42:14.510Z,5.25
2022-12-08T06:45:39.831Z,5.33
2022-12-08T06:49:05.056Z,5.34
2022-12-08T06:52:30.301Z,5.23
2022-12-08T06:55:59.872Z,5.09
2022-12-08T06:59:20.898Z,4.98
2022-12-08T07:02:46.240Z,4.89
2022-12-08T07:06:11.385Z,4.83
2022-12-08T07:09:36.708Z,4.88
2022-12-08T07:13:01.984Z,4.92
2022-12-08T07:16:27.304Z,4.92
2022-12-08T07:19:52.551Z,4.92
2022-12-08T07:23:17.830Z,4.94
2022-12-08T07:26:43.107Z,4.88
2022-12-08T07:30:08.391Z,4.87
2022-12-08T07:33:33.646Z,4.87
2022-12-08T07:36:58.942Z,4.93
2022-12-08T07:40:24.179Z,4.84
2022-12-08T07:43:49.450Z,4.85
2022-12-08T07:47:14.711Z,4.89
2022-12-08T07:50:39.995Z,4.91
2022-12-08T07:54:05.268Z,4.98
2022-12-08T07:57:30.524Z,5.04
2022-12-08T08:00:55.903Z,5.11
2022-12-08T08:04:21.063Z,5.1
2022-12-08T08:07:46.356Z,5.1
2022-12-08T08:11:17.391Z,5.16
2022-12-08T08:14:36.903Z,5.25
2022-12-08T08:18:02.134Z,5.29
2022-12-08T08:21:50.029Z,5.29
2022-12-08T08:24:52.641Z,5.28
2022-12-08T08:28:17.961Z,5.32
2022-12-08T08:31:43.191Z,5.26
2022-12-08T08:35:08.402Z,5.23
2022-12-08T08:38:33.652Z,5.24
2022-12-08T08:41:58.884Z,5.14
2022-12-08T08:45:24.244Z,5.13
2022-12-08T08:48:49.494Z,5.14
2022-12-08T08:52:14.776Z,5.16
2022-12-08T08:55:40.030Z,5.18
2022-12-08T08:59:05.327Z,5.15
2022-12-08T09:02:30.615Z,5.15
2022-12-08T09:05:55.877Z,5.19
2022-12-08T09:09:21.103Z,5.18
2022-12-08T09:12:46.366Z,5.15
2022-12-08T09:16:11.748Z,5.16
2022-12-08T09:19:36.963Z,5.21
2022-12-08T09:23:02.270Z,5.3
2022-12-08T09:26:27.533Z,5.39
2022-12-08T09:29:52.826Z,5.44
2022-12-08T09:33:18.197Z,5.4
2022-12-08T09:36:43.471Z,5.35
2022-12-08T09:40:08.739Z,5.36
2022-12-08T09:43:33.980Z,5.41
2022-12-08T09:46:59.352Z,5.47
2022-12-08T09:50:24.585Z,5.43
2022-12-08T09:53:49.860Z,5.42
2022-12-08T09:57:15.040Z,5.47
2022-12-08T10:00:40.291Z,5.49
2022-12-08T10:04:05.554Z,5.46
2022-12-08T10:07:30.809Z,5.42
2022-12-08T10:10:56.087Z,5.39
2022-12-08T10:14:21.292Z,5.34
2022-12-08T10:17:46.546Z,5.28
2022-12-08T10:21:11.788Z,5.28
2022-12-08T10:24:37.024Z,5.29
2022-12-08T10:28:02.470Z,5.34
2022-12-08T10:31:27.691Z,5.41
2022-12-08T10:34:56.270Z,5.43
2022-12-08T10:38:18.115Z,5.44
2022-12-08T10:41:43.353Z,5.46
2022-12-08T10:45:08.608Z,5.51
2022-12-08T10:48:33.837Z,5.5
2022-12-08T10:51:59.092Z,5.5
2022-12-08T10:55:24.335Z,5.51
2022-12-08T10:58:49.623Z,5.53
2022-12-08T11:02:14.969Z,5.5
2022-12-08T11:05:40.126Z,5.47
2022-12-08T11:09:05.389Z,5.46
2022-12-08T11:12:30.642Z,5.52
2022-12-08T11:15:55.936Z,5.57
2022-12-08T11:19:21.172Z,5.63
2022-12-08T11:22:46.397Z,5.7
2022-12-08T11:26:11.651Z,5.8
2022-12-08T11:29:36.885Z,5.88
2022-12-08T11:33:02.130Z,5.91
2022-12-08T11:36:27.409Z,5.89
2022-12-08T11:39:52.638Z,5.83
2022-12-08T11:43:17.897Z,5.75
2022-12-08T11:46:43.145Z,5.73
2022-12-08T11:50:08.402Z,5.71
2022-12-08T11:53:33.674Z,5.7
2022-12-08T11:56:58.907Z,5.73
2022-12-08T12:00:24.198Z,5.66
2022-12-08T12:03:49.515Z,5.63
2022-12-08T12:07:14.708Z,5.55
2022-12-08T12:10:40.001Z,5.58
2022-12-08T12:14:05.235Z,5.64
2022-12-08T12:18:11.981Z,5.58
2022-12-08T12:21:44.017Z,5.67
2022-12-08T12:25:09.283Z,5.71
2022-12-08T12:28:34.555Z,5.72
2022-12-08T12:31:59.831Z,5.71
2022-12-08T12:35:27.272Z,5.71
2022-12-08T12:38:50.351Z,5.75
2022-12-08T12:42:15.623Z,5.75
2022-12-08T12:45:40.965Z,5.77
2022-12-08T12:49:06.148Z,5.75
2022-12-08T12:52:31.409Z,5.67
2022-12-08T12:55:56.707Z,5.59
2022-12-08T12:59:21.985Z,5.54
2022-12-08T13:02:47.281Z,5.52
2022-12-08T13:06:14.523Z,5.57
2022-12-08T13:09:37.755Z,5.61
2022-12-08T13:13:03.025Z,5.63
2022-12-08T13:16:28.351Z,5.69
2022-12-08T13:19:53.541Z,5.74
2022-12-08T13:23:18.795Z,5.79
2022-12-08T13:26:44.082Z,5.82
2022-12-08T13:30:09.495Z,5.83
2022-12-08T13:33:34.716Z,5.83
2022-12-08T13:36:59.985Z,5.86
2022-12-08T13:40:25.224Z,5.85
2022-12-08T13:44:20.434Z,5.79
2022-12-08T13:47:33.189Z,5.8
2022-12-08T13:52:15.976Z,5.79
2022-12-08T13:57:32.721Z,5.73
2022-12-08T14:00:56.724Z,5.72
2022-12-08T14:04:42.379Z,5.67
2022-12-08T14:07:48.573Z,5.59
2022-12-08T14:11:14.245Z,5.59
2022-12-08T14:15:01.613Z,5.61
2022-12-08T14:18:05.211Z,5.63
2022-12-08T14:21:35.742Z,5.62
2022-12-08T14:24:56.230Z,5.62
2022-12-08T14:28:21.539Z,5.63
2022-12-08T15:03:43.595Z,3.36
2022-12-08T15:07:06.845Z,4.33
2022-12-08T15:10:32.293Z,4.53
2022-12-08T15:13:57.689Z,4.7
2022-12-08T15:17:23.043Z,4.88
2022-12-08T15:20:48.473Z,5.03
2022-12-08T15:24:13.859Z,5.12
2022-12-08T15:27:49.739Z,5.21
2022-12-08T15:31:04.542Z,5.25
2022-12-08T15:34:29.877Z,5.27
2022-12-08T15:37:55.194Z,5.27
2022-12-08T15:41:20.503Z,5.28
2022-12-08T15:44:45.815Z,5.34
2022-12-08T15:48:11.137Z,5.41
2022-12-08T15:51:36.538Z,5.37
2022-12-08T15:55:04.286Z,5.42
2022-12-08T15:58:58.960Z,5.44
2022-12-08T16:01:55.175Z,5.53
2022-12-08T16:05:42.735Z,5.63
2022-12-08T16:09:13.546Z,5.73
2022-12-08T16:13:27.196Z,5.8
2022-12-08T16:16:09.989Z,5.83
2022-12-08T16:19:38.037Z,5.86
2022-12-08T16:23:19.594Z,5.82
2022-12-08T16:27:22.509Z,5.78
2022-12-08T16:29:53.977Z,5.7
2022-12-08T16:33:19.184Z,5.61
2022-12-08T16:36:44.437Z,5.53
2022-12-08T16:40:09.808Z,5.43
2022-12-08T16:43:35.001Z,5.37
2022-12-08T16:47:00.291Z,5.31
2022-12-08T16:50:25.548Z,5.27
2022-12-08T16:53:51.161Z,5.28
2022-12-08T16:57:18.332Z,5.25
2022-12-08T17:00:43.640Z,5.24
2022-12-08T17:07:36.557Z,5.25
2022-12-08T17:11:01.794Z,5.21
2022-12-08T17:14:27.054Z,5.09
2022-12-08T17:17:52.691Z,4.98
2022-12-08T17:21:17.965Z,4.89
2022-12-08T17:24:43.196Z,4.85
2022-12-08T17:28:08.452Z,4.8
2022-12-08T17:31:33.825Z,4.73
2022-12-08T17:34:58.959Z,4.69
2022-12-08T17:38:24.235Z,4.6
2022-12-08T17:41:49.467Z,4.55
2022-12-08T17:45:14.740Z,4.51
2022-12-08T17:48:39.994Z,4.54
2022-12-08T17:52:05.218Z,4.63
2022-12-08T17:55:30.527Z,4.59
2022-12-08T17:58:55.753Z,4.56
2022-12-08T18:02:21.058Z,4.59
2022-12-08T18:05:46.226Z,4.64
2022-12-08T18:09:11.477Z,4.73
2022-12-08T18:12:36.742Z,4.81
2022-12-08T18:16:01.955Z,4.9
2022-12-08T18:19:27.207Z,4.97
2022-12-08T18:22:52.439Z,5.03
2022-12-08T18:26:17.693Z,5.05
2022-12-08T18:29:42.976Z,5.03
2022-12-08T18:33:08.211Z,4.97
2022-12-08T18:36:33.502Z,4.91
2022-12-08T18:39:58.738Z,4.92
2022-12-08T18:43:24.024Z,4.93
2022-12-08T18:46:49.297Z,4.86
2022-12-08T18:50:14.523Z,4.82
2022-12-08T18:53:39.805Z,4.77
2022-12-08T18:57:05.029Z,4.79
2022-12-08T19:00:30.282Z,4.77
2022-12-08T19:04:26.487Z,4.78
2022-12-08T19:07:20.754Z,4.85
2022-12-08T19:10:45.989Z,4.88
2022-12-08T19:14:11.234Z,4.94
2022-12-08T19:17:36.472Z,4.98
2022-12-08T19:21:01.735Z,5.04
2022-12-08T19:24:26.956Z,5.06
2022-12-08T19:27:52.197Z,5.11
2022-12-08T19:31:17.498Z,5.16
2022-12-08T19:34:42.692Z,5.15
2022-12-08T19:38:07.965Z,5.13
2022-12-08T19:41:33.221Z,5.15
2022-12-08T19:44:58.441Z,5.19
2022-12-08T19:48:23.702Z,5.25
2022-12-08T19:51:48.980Z,5.3
2022-12-08T19:55:14.490Z,5.33
2022-12-08T19:58:39.803Z,5.4
2022-12-08T20:02:05.213Z,5.41
2022-12-08T20:05:30.494Z,5.39
2022-12-08T20:08:55.999Z,5.38
2022-12-08T20:12:21.253Z,5.34
2022-12-08T20:15:46.742Z,5.33
2022-12-08T20:19:12.045Z,5.32
2022-12-08T20:22:37.358Z,5.33
2022-12-08T20:26:02.736Z,5.35
2022-12-08T20:29:28.492Z,5.38
2022-12-08T20:32:53.732Z,5.37
2022-12-08T20:36:19.137Z,5.33
2022-12-08T20:39:44.551Z,5.25
2022-12-08T20:43:09.934Z,5.12
2022-12-08T20:46:35.278Z,5.09
2022-12-08T20:50:00.618Z,5.1
2022-12-08T20:53:25.953Z,5.09
2022-12-08T20:56:51.321Z,5.02
2022-12-08T21:00:16.737Z,5.03
2022-12-08T21:03:42.240Z,5.07
2022-12-08T21:07:07.286Z,5.15
2022-12-08T21:10:32.629Z,5.15
2022-12-08T21:13:57.938Z,5.21
2022-12-08T21:17:23.357Z,5.28
2022-12-08T21:20:48.636Z,5.36
2022-12-08T21:24:13.810Z,5.43
2022-12-08T21:27:39.023Z,5.45
2022-12-08T21:31:04.324Z,5.49
2022-12-08T21:34:29.640Z,5.52
2022-12-08T21:37:54.963Z,5.57
2022-12-08T21:41:20.107Z,5.59
2022-12-08T21:44:45.327Z,5.58
2022-12-08T21:48:11.845Z,5.59
2022-12-08T21:51:35.767Z,5.61
2022-12-08T21:55:01.078Z,5.63
2022-12-08T21:58:26.385Z,5.63
2022-12-08T22:01:51.619Z,5.62
2022-12-08T22:05:16.767Z,5.6
2022-12-08T22:08:42.241Z,5.57
2022-12-08T22:12:07.388Z,5.55
2022-12-08T22:15:32.629Z,5.52
2022-12-08T22:18:57.928Z,5.49
2022-12-08T22:22:23.478Z,5.47
2022-12-08T22:25:49.641Z,5.41
2022-12-08T22:29:15.968Z,5.33
2022-12-08T22:32:42.407Z,5.28
2022-12-08T22:36:10.842Z,5.28
2022-12-08T22:39:34.250Z,5.33
2022-12-08T22:43:00.600Z,5.35
2022-12-08T22:46:26.731Z,5.33
2022-12-08T22:49:52.970Z,5.29
2022-12-08T22:53:19.021Z,5.22
2022-12-08T22:56:44.798Z,5.23
2022-12-08T23:00:10.673Z,5.25
2022-12-08T23:03:35.385Z,5.26
2022-12-08T23:07:00.551Z,5.28
2022-12-08T23:10:25.815Z,5.32
2022-12-08T23:13:51.192Z,5.38
2022-12-08T23:17:16.517Z,5.45
2022-12-08T23:20:41.824Z,5.48
2022-12-08T23:24:07.018Z,5.49
2022-12-08T23:27:32.268Z,5.49
2022-12-08T23:30:57.756Z,5.51
2022-12-08T23:34:22.782Z,5.54
2022-12-08T23:37:48.262Z,5.57
2022-12-08T23:41:13.234Z,5.6
2022-12-08T23:44:38.557Z,5.64
2022-12-08T23:48:03.797Z,5.66
2022-12-08T23:51:29.067Z,5.65
2022-12-08T23:54:54.590Z,5.6
2022-12-08T23:58:19.599Z,5.58
